createdAt,value
2023-03-02T00:02:06.856Z,2.30
2023-03-02T00:04:47.381Z,3.00
2023-03-02T00:07:17.011Z,2.47
2023-03-02T00:09:44.629Z,2.47
2023-03-02T00:12:11.583Z,2.10
2023-03-02T00:14:38.529Z,2.20
2023-03-02T00:17:05.769Z,2.40
2023-03-02T00:19:32.807Z,2.65
2023-03-02T00:21:59.745Z,2.70
2023-03-02T00:24:26.746Z,3.05
2023-03-02T00:26:53.656Z,2.90
2023-03-02T00:29:20.555Z,3.10
2023-03-02T00:31:47.483Z,3.10
2023-03-02T00:34:16.992Z,3.20
2023-03-02T00:36:44.211Z,3.35
2023-03-02T00:39:11.200Z,2.97
2023-03-02T00:41:38.084Z,3.30
2023-03-02T00:44:05.086Z,2.78
2023-03-02T00:46:32.689Z,3.10
2023-03-02T00:48:59.649Z,4.00
2023-03-02T00:51:26.487Z,3.58
2023-03-02T00:53:53.350Z,4.05
2023-03-02T00:56:20.300Z,3.58
2023-03-02T00:58:50.584Z,4.57
2023-03-02T01:01:18.843Z,4.03
2023-03-02T01:03:49.476Z,3.70
2023-03-02T01:06:18.761Z,4.35
2023-03-02T01:08:45.737Z,4.05
2023-03-02T01:11:14.434Z,4.30
2023-03-02T01:13:41.354Z,4.15
2023-03-02T01:16:08.618Z,3.95
2023-03-02T01:18:38.747Z,4.32
2023-03-02T01:21:08.430Z,4.90
2023-03-02T01:23:35.525Z,5.53
2023-03-02T01:26:02.603Z,4.00
2023-03-02T01:28:29.520Z,4.10
2023-03-02T01:30:56.476Z,3.95
2023-03-02T01:33:23.368Z,5.07
2023-03-02T01:35:50.293Z,3.90
2023-03-02T01:38:17.288Z,5.45
2023-03-02T01:40:44.233Z,5.47
2023-03-02T01:43:15.977Z,5.03
2023-03-02T01:46:20.102Z,4.40
2023-03-02T01:49:01.710Z,5.38
2023-03-02T01:51:46.333Z,5.47
2023-03-02T01:56:44.757Z,5.93
2023-03-02T01:59:16.116Z,4.97
2023-03-02T02:01:45.284Z,5.28
2023-03-02T02:04:12.188Z,5.95
2023-03-02T02:06:39.903Z,4.60
2023-03-02T02:09:08.479Z,5.70
2023-03-02T02:11:36.037Z,5.00
2023-03-02T02:14:02.976Z,4.57
2023-03-02T02:16:31.962Z,5.35
2023-03-02T02:18:59.168Z,5.53
2023-03-02T02:21:26.195Z,5.53
2023-03-02T02:24:10.139Z,5.65
2023-03-02T02:26:48.719Z,4.97
2023-03-02T02:29:19.132Z,5.10
2023-03-02T02:31:51.507Z,5.30
2023-03-02T02:34:22.707Z,5.18
2023-03-02T02:36:54.261Z,5.03
2023-03-02T02:39:24.076Z,4.95
2023-03-02T02:41:51.816Z,4.72
2023-03-02T02:44:18.867Z,5.05
2023-03-02T02:46:45.759Z,4.97
2023-03-02T02:49:37.458Z,4.35
2023-03-02T02:52:04.901Z,5.05
2023-03-02T02:54:31.891Z,5.30
2023-03-02T02:56:59.149Z,5.22
2023-03-02T02:59:29.139Z,4.72
2023-03-02T03:01:58.933Z,5.18
2023-03-02T03:04:28.983Z,5.13
2023-03-02T03:07:04.139Z,5.43
2023-03-02T03:09:31.716Z,5.95
2023-03-02T03:12:01.326Z,6.00
2023-03-02T03:14:34.851Z,5.72
2023-03-02T03:17:01.819Z,4.90
2023-03-02T03:19:30.923Z,6.05
2023-03-02T03:22:02.094Z,6.30
2023-03-02T03:24:34.771Z,6.10
2023-03-02T03:27:05.598Z,6.25
2023-03-02T03:29:37.015Z,6.05
2023-03-02T03:32:06.991Z,6.45
2023-03-02T03:34:40.647Z,5.57
2023-03-02T03:37:16.240Z,5.50
2023-03-02T03:39:43.847Z,7.10
2023-03-02T03:42:11.112Z,6.10
2023-03-02T03:44:38.291Z,5.90
2023-03-02T03:47:05.900Z,6.60
2023-03-02T03:49:33.165Z,6.38
2023-03-02T03:52:00.097Z,6.55
2023-03-02T03:54:27.197Z,6.10
2023-03-02T03:56:54.193Z,5.25
2023-03-02T03:59:23.309Z,6.00
2023-03-02T04:01:58.913Z,5.95
2023-03-02T04:04:31.097Z,6.47
2023-03-02T04:06:58.610Z,6.82
2023-03-02T04:09:25.759Z,6.10
2023-03-02T04:11:54.911Z,6.60
2023-03-02T04:14:22.915Z,6.30
2023-03-02T04:16:51.130Z,6.65
2023-03-02T04:19:18.785Z,6.03
2023-03-02T04:24:18.821Z,7.20
2023-03-02T04:26:46.586Z,5.82
2023-03-02T04:29:14.633Z,7.50
2023-03-02T04:31:42.262Z,7.55
2023-03-02T04:34:09.916Z,7.35
2023-03-02T04:36:39.745Z,6.97
2023-03-02T04:39:10.728Z,7.35
2023-03-02T04:41:37.674Z,7.75
2023-03-02T04:44:04.691Z,6.40
2023-03-02T04:46:32.308Z,5.90
2023-03-02T04:48:59.333Z,7.97
2023-03-02T04:51:31.372Z,7.05
2023-03-02T04:54:00.274Z,7.13
2023-03-02T04:56:27.284Z,7.70
2023-03-02T04:58:54.263Z,7.45
2023-03-02T05:01:21.515Z,7.63
2023-03-02T05:03:48.765Z,7.43
2023-03-02T05:06:15.829Z,8.10
2023-03-02T05:08:43.161Z,8.70
2023-03-02T05:11:11.135Z,6.88
2023-03-02T05:13:38.041Z,8.32
2023-03-02T05:16:05.309Z,8.07
2023-03-02T05:18:32.268Z,8.45
2023-03-02T05:20:59.129Z,5.43
2023-03-02T05:23:27.226Z,6.70
2023-03-02T05:25:55.166Z,7.20
2023-03-02T05:28:22.998Z,7.72
2023-03-02T05:30:49.972Z,7.85
2023-03-02T05:33:17.000Z,7.97
2023-03-02T05:35:44.133Z,7.70
2023-03-02T05:38:11.751Z,6.32
2023-03-02T05:40:39.053Z,7.38
2023-03-02T05:43:06.088Z,8.52
2023-03-02T05:45:37.261Z,8.02
2023-03-02T05:48:04.599Z,7.20
2023-03-02T05:50:31.711Z,7.72
2023-03-02T05:53:00.252Z,6.90
2023-03-02T05:55:27.208Z,7.25
2023-03-02T05:57:54.386Z,7.10
2023-03-02T06:00:21.668Z,9.07
2023-03-02T06:02:48.658Z,7.88
2023-03-02T06:05:17.435Z,7.95
2023-03-02T06:07:44.474Z,8.20
2023-03-02T06:10:12.134Z,7.35
2023-03-02T06:12:39.085Z,6.90
2023-03-02T06:15:06.794Z,8.07
2023-03-02T06:17:33.693Z,7.97
2023-03-02T06:20:00.589Z,7.97
2023-03-02T06:22:27.458Z,9.50
2023-03-02T06:24:55.365Z,7.25
2023-03-02T06:27:22.314Z,7.35
2023-03-02T06:29:49.405Z,7.18
2023-03-02T06:32:16.483Z,7.63
2023-03-02T06:34:43.418Z,7.95
2023-03-02T06:37:10.568Z,7.85
2023-03-02T06:39:37.504Z,7.95
2023-03-02T06:42:04.373Z,7.70
2023-03-02T06:44:31.363Z,7.35
2023-03-02T06:46:58.208Z,8.35
2023-03-02T06:49:25.178Z,8.77
2023-03-02T06:51:52.035Z,7.63
2023-03-02T06:54:18.920Z,7.65
2023-03-02T06:56:45.781Z,8.00
2023-03-02T06:59:12.676Z,8.55
2023-03-02T07:01:39.535Z,8.68
2023-03-02T07:04:06.584Z,9.82
2023-03-02T07:06:33.453Z,10.35
2023-03-02T07:09:01.201Z,10.20
2023-03-02T07:11:28.036Z,8.93
2023-03-02T07:13:54.954Z,9.38
2023-03-02T07:16:21.880Z,9.93
2023-03-02T07:18:48.742Z,11.05
2023-03-02T07:21:15.657Z,9.80
2023-03-02T07:23:42.572Z,11.55
2023-03-02T07:26:09.500Z,11.05
2023-03-02T07:28:39.549Z,11.27
2023-03-02T07:33:33.591Z,11.98
2023-03-02T07:36:00.710Z,11.18
2023-03-02T07:38:27.835Z,12.45
2023-03-02T07:40:54.855Z,12.77
2023-03-02T07:43:24.088Z,11.98
2023-03-02T07:45:51.050Z,12.52
2023-03-02T07:48:18.294Z,9.90
2023-03-02T07:50:45.217Z,13.07
2023-03-02T07:53:12.357Z,11.88
2023-03-02T07:55:42.111Z,13.25
2023-03-02T07:58:08.949Z,11.60
2023-03-02T08:00:36.765Z,11.70
2023-03-02T08:03:03.836Z,12.40
2023-03-02T08:05:30.906Z,13.40
2023-03-02T08:07:57.870Z,11.90
2023-03-02T08:10:24.847Z,12.38
2023-03-02T08:12:51.884Z,11.90
2023-03-02T08:15:18.767Z,11.52
2023-03-02T08:17:45.696Z,12.88
2023-03-02T08:20:12.813Z,12.15
2023-03-02T08:22:39.719Z,12.20
2023-03-02T08:25:07.462Z,11.30
2023-03-02T08:27:34.311Z,12.55
2023-03-02T08:30:01.293Z,12.98
2023-03-02T08:32:28.253Z,13.05
2023-03-02T08:34:55.135Z,13.60
2023-03-02T08:37:22.046Z,14.95
2023-03-02T08:39:48.953Z,13.15
2023-03-02T08:42:16.379Z,12.73
2023-03-02T08:44:43.496Z,12.68
2023-03-02T08:47:10.486Z,13.98
2023-03-02T08:49:40.570Z,13.10
2023-03-02T08:52:07.581Z,13.20
2023-03-02T08:54:34.705Z,12.38
2023-03-02T08:57:02.251Z,13.73
2023-03-02T08:59:29.178Z,13.07
2023-03-02T09:01:56.007Z,14.48
2023-03-02T09:04:22.985Z,14.05
2023-03-02T09:06:50.032Z,14.75
2023-03-02T09:09:17.027Z,15.13
2023-03-02T09:11:44.958Z,13.52
2023-03-02T09:14:11.919Z,12.68
2023-03-02T09:16:38.942Z,11.75
2023-03-02T09:19:05.928Z,12.00
2023-03-02T09:21:33.122Z,15.45
2023-03-02T09:24:00.257Z,14.13
2023-03-02T09:26:27.327Z,15.45
2023-03-02T09:28:54.820Z,13.10
2023-03-02T09:31:21.889Z,13.55
2023-03-02T09:33:48.860Z,13.10
2023-03-02T09:36:21.730Z,12.48
2023-03-02T09:38:48.841Z,13.20
2023-03-02T09:41:21.962Z,12.82
2023-03-02T09:44:13.417Z,13.25
2023-03-02T09:46:46.352Z,13.27
2023-03-02T09:49:50.681Z,12.30
2023-03-02T09:52:38.520Z,12.30
2023-03-02T09:55:16.701Z,13.32
2023-03-02T09:57:44.707Z,12.48
2023-03-02T10:00:31.361Z,13.15
2023-03-02T10:03:16.164Z,11.25
2023-03-02T10:05:54.395Z,12.05
2023-03-02T10:08:29.377Z,13.00
2023-03-02T10:11:04.928Z,12.73
2023-03-02T10:13:49.298Z,12.32
2023-03-02T10:16:37.513Z,11.80
2023-03-02T10:19:15.030Z,12.27
2023-03-02T10:21:44.495Z,12.30
2023-03-02T10:24:30.483Z,11.57
2023-03-02T10:27:17.746Z,12.80
2023-03-02T10:29:53.518Z,11.45
2023-03-02T10:32:45.081Z,11.80
2023-03-02T10:35:18.371Z,11.63
2023-03-02T10:37:45.316Z,11.15
2023-03-02T10:40:36.670Z,11.30
2023-03-02T10:43:03.548Z,11.77
2023-03-02T10:45:32.162Z,10.90
2023-03-02T10:48:05.750Z,11.50
2023-03-02T10:50:32.940Z,12.38
2023-03-02T10:53:01.563Z,12.23
2023-03-02T10:55:30.109Z,11.60
2023-03-02T10:58:07.846Z,12.05
2023-03-02T11:00:35.083Z,13.27
2023-03-02T11:03:23.341Z,11.60
2023-03-02T11:05:50.336Z,10.27
2023-03-02T11:08:21.602Z,10.15
2023-03-02T11:11:00.829Z,10.95
2023-03-02T11:13:36.228Z,10.23
2023-03-02T11:16:04.624Z,9.85
2023-03-02T11:18:31.578Z,10.13
2023-03-02T11:21:15.502Z,10.25
2023-03-02T11:24:00.975Z,10.23
2023-03-02T11:26:44.543Z,10.10
2023-03-02T11:29:39.083Z,10.07
2023-03-02T11:32:09.028Z,9.98
2023-03-02T11:34:46.760Z,8.70
2023-03-02T11:37:16.784Z,9.77
2023-03-02T11:39:56.920Z,9.48
2023-03-02T11:42:35.541Z,9.63
2023-03-02T11:45:18.474Z,9.25
2023-03-02T11:48:02.543Z,9.60
2023-03-02T11:50:31.389Z,8.75
2023-03-02T11:52:59.784Z,9.63
2023-03-02T11:55:27.996Z,10.05
2023-03-02T11:57:56.731Z,8.90
2023-03-02T12:00:29.935Z,9.55
2023-03-02T12:03:15.222Z,9.60
2023-03-02T12:05:47.269Z,8.43
2023-03-02T12:08:20.256Z,9.73
2023-03-02T12:11:00.346Z,9.52
2023-03-02T12:15:57.294Z,8.02
2023-03-02T12:18:24.876Z,10.07
2023-03-02T12:21:01.810Z,8.85
2023-03-02T12:23:29.024Z,9.57
2023-03-02T12:26:20.490Z,9.95
2023-03-02T12:29:02.266Z,9.57
2023-03-02T12:31:48.244Z,11.75
2023-03-02T12:34:24.192Z,11.52
2023-03-02T12:36:52.592Z,9.70
2023-03-02T12:39:40.301Z,10.18
2023-03-02T12:42:19.550Z,10.70
2023-03-02T12:44:59.146Z,10.50
2023-03-02T12:47:29.889Z,8.10
2023-03-02T12:50:16.671Z,8.73
2023-03-02T12:52:43.660Z,8.52
2023-03-02T12:55:17.213Z,9.60
2023-03-02T12:57:51.490Z,7.65
2023-03-02T13:00:23.880Z,9.88
2023-03-02T13:02:52.237Z,9.02
2023-03-02T13:05:27.579Z,9.07
2023-03-02T13:08:00.924Z,10.50
2023-03-02T13:10:36.169Z,9.95
2023-03-02T13:13:04.641Z,9.30
2023-03-02T13:15:31.574Z,8.65
2023-03-02T13:17:59.840Z,8.35
2023-03-02T13:20:28.906Z,7.43
2023-03-02T13:22:55.834Z,7.65
2023-03-02T13:25:27.823Z,7.63
2023-03-02T13:28:01.880Z,6.97
2023-03-02T13:30:30.703Z,6.65
2023-03-02T13:33:01.694Z,6.28
2023-03-02T13:35:33.703Z,6.63
2023-03-02T13:38:01.787Z,6.38
2023-03-02T13:40:34.839Z,6.53
2023-03-02T13:43:01.876Z,6.03
2023-03-02T13:45:30.438Z,6.53
2023-03-02T13:47:59.297Z,6.82
2023-03-02T13:50:28.167Z,5.72
2023-03-02T13:53:00.667Z,6.07
2023-03-02T13:55:27.637Z,6.28
2023-03-02T13:57:54.561Z,5.55
2023-03-02T14:00:34.125Z,6.20
2023-03-02T14:03:01.288Z,5.40
2023-03-02T14:05:33.614Z,5.40
2023-03-02T14:08:00.877Z,5.75
2023-03-02T14:10:27.855Z,5.20
2023-03-02T14:13:01.765Z,5.90
2023-03-02T14:15:28.725Z,5.20
2023-03-02T14:17:55.638Z,5.90
2023-03-02T14:20:22.594Z,5.15
2023-03-02T14:22:50.745Z,5.93
2023-03-02T14:25:17.880Z,6.10
2023-03-02T14:27:47.225Z,5.60
2023-03-02T14:30:19.126Z,6.55
2023-03-02T14:32:46.180Z,6.68
2023-03-02T14:35:14.276Z,5.28
2023-03-02T14:37:43.273Z,4.65
2023-03-02T14:40:30.685Z,5.60
2023-03-02T14:42:57.705Z,4.70
2023-03-02T14:45:24.650Z,4.80
2023-03-02T14:47:51.556Z,4.97
2023-03-02T14:50:18.611Z,4.43
2023-03-02T14:52:49.813Z,4.60
2023-03-02T14:55:36.396Z,4.90
2023-03-02T14:58:30.394Z,5.10
2023-03-02T15:00:57.341Z,5.47
2023-03-02T15:03:25.770Z,4.97
2023-03-02T15:06:00.786Z,5.20
2023-03-02T15:08:28.809Z,5.40
2023-03-02T15:10:55.714Z,6.57
2023-03-02T15:13:22.658Z,4.85
2023-03-02T15:15:50.223Z,4.45
2023-03-02T15:18:19.905Z,4.90
2023-03-02T15:20:47.101Z,5.50
2023-03-02T15:23:13.947Z,5.22
2023-03-02T15:25:40.910Z,5.53
2023-03-02T15:28:07.786Z,4.63
2023-03-02T15:30:34.686Z,5.00
2023-03-02T15:33:01.710Z,5.85
2023-03-02T15:35:29.483Z,5.07
2023-03-02T15:37:58.388Z,5.13
2023-03-02T15:40:25.915Z,5.25
2023-03-02T15:42:53.215Z,5.07
2023-03-02T15:45:20.272Z,5.47
2023-03-02T15:47:47.250Z,5.53
2023-03-02T15:50:14.909Z,5.47
2023-03-02T15:52:42.048Z,4.97
2023-03-02T15:55:09.443Z,4.80
2023-03-02T15:57:38.369Z,4.53
2023-03-02T16:00:05.829Z,4.95
2023-03-02T16:02:33.077Z,4.05
2023-03-02T16:04:59.990Z,4.53
2023-03-02T16:07:26.904Z,4.28
2023-03-02T16:09:53.761Z,4.53
2023-03-02T16:12:23.440Z,5.15
2023-03-02T16:14:50.379Z,4.00
2023-03-02T16:17:20.631Z,4.63
2023-03-02T16:19:47.506Z,4.60
2023-03-02T16:22:14.482Z,4.55
2023-03-02T16:24:41.998Z,4.32
2023-03-02T16:27:09.109Z,4.53
2023-03-02T16:29:36.043Z,4.68
2023-03-02T16:32:03.099Z,4.68
2023-03-02T16:34:30.134Z,4.53
2023-03-02T16:36:57.079Z,4.22
2023-03-02T16:39:24.283Z,4.43
2023-03-02T16:41:51.573Z,3.47
2023-03-02T16:44:18.760Z,3.95
2023-03-02T16:46:45.903Z,4.03
2023-03-02T16:49:13.202Z,4.30
2023-03-02T16:51:40.549Z,3.75
2023-03-02T16:54:07.576Z,3.92
2023-03-02T16:56:34.578Z,4.20
2023-03-02T16:59:01.442Z,5.00
2023-03-02T17:01:29.183Z,4.78
2023-03-02T17:03:56.518Z,4.25
2023-03-02T17:06:23.860Z,4.00
2023-03-02T17:08:50.985Z,4.93
2023-03-02T17:11:18.510Z,4.10
2023-03-02T17:13:45.534Z,4.63
2023-03-02T17:16:12.675Z,4.30
2023-03-02T17:18:41.064Z,4.30
2023-03-02T17:21:08.209Z,4.50
2023-03-02T17:23:36.891Z,4.20
2023-03-02T17:26:04.067Z,4.47
2023-03-02T17:28:31.050Z,4.53
2023-03-02T17:30:58.004Z,4.75
2023-03-02T17:33:24.930Z,4.40
2023-03-02T17:35:52.245Z,4.63
2023-03-02T17:38:19.255Z,4.22
2023-03-02T17:40:46.118Z,5.20
2023-03-02T17:43:13.048Z,4.45
2023-03-02T17:45:39.923Z,4.25
2023-03-02T17:48:07.121Z,5.35
2023-03-02T17:50:34.051Z,5.10
2023-03-02T17:53:02.182Z,5.05
2023-03-02T17:55:29.252Z,4.38
2023-03-02T17:57:56.193Z,5.00
2023-03-02T18:00:23.724Z,4.55
2023-03-02T18:02:50.867Z,4.57
2023-03-02T18:05:17.864Z,4.10
2023-03-02T18:07:44.763Z,4.57
2023-03-02T18:10:11.792Z,4.65
2023-03-02T18:12:38.678Z,4.00
2023-03-02T18:15:06.134Z,3.70
2023-03-02T18:17:32.996Z,4.35
2023-03-02T18:19:59.925Z,4.13
2023-03-02T18:22:26.807Z,3.90
2023-03-02T18:24:53.752Z,3.95
2023-03-02T18:27:20.693Z,3.85
2023-03-02T18:29:47.858Z,4.05
2023-03-02T18:32:14.884Z,3.95
2023-03-02T18:34:42.063Z,4.70
2023-03-02T18:37:09.190Z,3.88
2023-03-02T18:39:37.865Z,4.43
2023-03-02T18:42:05.504Z,3.88
2023-03-02T18:44:32.591Z,3.83
2023-03-02T18:47:00.777Z,3.58
2023-03-02T18:49:28.207Z,4.40
2023-03-02T18:51:56.637Z,4.13
2023-03-02T18:54:24.019Z,3.70
2023-03-02T18:56:51.229Z,4.35
2023-03-02T18:59:18.333Z,3.85
2023-03-02T19:01:46.293Z,3.70
2023-03-02T19:04:14.363Z,4.80
2023-03-02T19:06:41.994Z,3.88
2023-03-02T19:09:08.957Z,4.20
2023-03-02T19:11:35.824Z,4.07
2023-03-02T19:14:02.772Z,3.45
2023-03-02T19:16:29.700Z,3.33
2023-03-02T19:18:56.845Z,3.97
2023-03-02T19:21:23.721Z,3.90
2023-03-02T19:23:50.571Z,3.97
2023-03-02T19:26:17.508Z,4.07
2023-03-02T19:28:44.416Z,3.75
2023-03-02T19:31:11.579Z,3.40
2023-03-02T19:33:38.843Z,3.10
2023-03-02T19:36:06.253Z,3.00
2023-03-02T19:38:33.377Z,2.67
2023-03-02T19:41:00.937Z,3.10
2023-03-02T19:43:28.027Z,3.35
2023-03-02T19:45:54.914Z,3.15
2023-03-02T19:48:21.899Z,2.47
2023-03-02T19:50:48.785Z,3.15
2023-03-02T19:53:17.131Z,2.65
2023-03-02T19:55:44.514Z,3.63
2023-03-02T19:58:17.154Z,3.25
2023-03-02T20:00:44.526Z,3.30
2023-03-02T20:03:11.461Z,3.03
2023-03-02T20:05:38.492Z,3.15
2023-03-02T20:08:06.250Z,2.72
2023-03-02T20:10:41.552Z,3.55
2023-03-02T20:13:08.970Z,3.45
2023-03-02T20:15:38.326Z,3.60
2023-03-02T20:18:07.639Z,3.33
2023-03-02T20:20:34.465Z,3.30
2023-03-02T20:23:01.499Z,3.05
2023-03-02T20:25:28.657Z,3.63
2023-03-02T20:27:55.581Z,2.95
2023-03-02T20:30:27.907Z,2.92
2023-03-02T20:32:55.821Z,3.25
2023-03-02T20:35:22.948Z,3.00
2023-03-02T20:37:50.106Z,2.58
2023-03-02T20:40:17.358Z,2.65
2023-03-02T20:42:44.814Z,2.85
2023-03-02T20:45:12.119Z,3.75
2023-03-02T20:47:39.085Z,2.90
2023-03-02T20:50:07.910Z,2.97
2023-03-02T20:52:34.957Z,2.58
2023-03-02T20:55:01.883Z,2.90
2023-03-02T20:57:28.893Z,3.67
2023-03-02T20:59:55.819Z,3.40
2023-03-02T21:02:23.201Z,3.17
2023-03-02T21:04:50.144Z,2.95
2023-03-02T21:07:17.283Z,3.25
2023-03-02T21:09:44.357Z,2.72
2023-03-02T21:12:11.946Z,3.40
2023-03-02T21:14:39.481Z,3.70
2023-03-02T21:17:06.562Z,2.90
2023-03-02T21:19:34.290Z,3.00
2023-03-02T21:22:01.230Z,3.20
2023-03-02T21:24:28.178Z,3.22
2023-03-02T21:26:55.100Z,2.85
2023-03-02T21:29:23.212Z,3.92
2023-03-02T21:31:50.419Z,3.72
2023-03-02T21:34:19.008Z,3.80
2023-03-02T21:36:46.275Z,4.13
2023-03-02T21:39:13.650Z,4.05
2023-03-02T21:41:40.653Z,4.05
2023-03-02T21:44:07.659Z,4.60
2023-03-02T21:46:35.158Z,4.05
2023-03-02T21:49:02.060Z,3.85
2023-03-02T21:51:29.056Z,3.88
2023-03-02T21:53:55.931Z,4.50
2023-03-02T21:56:24.200Z,3.65
2023-03-02T21:58:52.807Z,3.42
2023-03-02T22:01:20.095Z,4.00
2023-03-02T22:03:47.133Z,4.43
2023-03-02T22:06:18.672Z,4.50
2023-03-02T22:08:45.570Z,3.83
2023-03-02T22:11:33.666Z,4.50
2023-03-02T22:14:21.004Z,4.57
2023-03-02T22:16:48.097Z,3.90
2023-03-02T22:19:30.174Z,4.00
2023-03-02T22:22:00.868Z,4.97
2023-03-02T22:24:29.114Z,4.25
2023-03-02T22:27:04.886Z,3.60
2023-03-02T22:29:41.374Z,4.38
2023-03-02T22:32:15.394Z,4.32
2023-03-02T22:34:43.157Z,4.35
2023-03-02T22:37:14.669Z,3.88
2023-03-02T22:39:42.359Z,4.13
2023-03-02T22:42:15.538Z,3.90
2023-03-02T22:44:43.100Z,4.10
2023-03-02T22:47:18.792Z,4.47
2023-03-02T22:49:46.480Z,4.43
2023-03-02T22:52:17.797Z,4.03
2023-03-02T22:54:45.800Z,3.28
2023-03-02T22:57:24.832Z,3.28
2023-03-02T22:59:51.743Z,4.22
2023-03-02T23:02:21.066Z,4.05
2023-03-02T23:04:48.305Z,3.87
2023-03-02T23:07:20.213Z,3.88
2023-03-02T23:09:47.316Z,3.80
2023-03-02T23:12:23.212Z,4.40
2023-03-02T23:14:51.692Z,3.78
2023-03-02T23:17:31.823Z,3.45
2023-03-02T23:22:28.633Z,3.40
2023-03-02T23:24:58.802Z,3.72
2023-03-02T23:29:52.652Z,3.55
2023-03-02T23:32:19.900Z,3.58
2023-03-02T23:34:46.976Z,3.60
2023-03-02T23:37:13.837Z,3.78
2023-03-02T23:39:40.645Z,4.00
2023-03-02T23:42:08.490Z,4.25
2023-03-02T23:44:35.328Z,3.47
2023-03-02T23:47:02.177Z,3.67
2023-03-02T23:49:29.040Z,3.42
2023-03-02T23:51:55.882Z,3.22
2023-03-02T23:54:22.745Z,3.30
2023-03-02T23:56:49.717Z,3.13
2023-03-02T23:59:16.531Z,3.40
